sensor_id;sensor_type;location;lat;lon;timestamp;pressure;altitude;pressure_sealevel;temperature;humidity
16100;BME280;8154;50.830;12.082;2022-12-29T00:33:51;98671.50;;;22.85;32.35
16100;BME280;8154;50.830;12.082;2022-12-29T00:36:39;98671.50;;;22.78;32.41
16100;BME280;8154;50.830;12.082;2022-12-29T00:39:10;98660.44;;;22.74;32.34
16100;BME280;8154;50.830;12.082;2022-12-29T00:41:55;98666.81;;;22.73;32.38
16100;BME280;8154;50.830;12.082;2022-12-29T00:44:40;98669.25;;;22.82;32.39
16100;BME280;8154;50.830;12.082;2022-12-29T00:47:06;98673.75;;;22.81;32.18
16100;BME280;8154;50.830;12.082;2022-12-29T00:49:33;98666.94;;;22.92;32.32
16100;BME280;8154;50.830;12.082;2022-12-29T00:52:09;98660.13;;;23.02;31.84
16100;BME280;8154;50.830;12.082;2022-12-29T00:54:37;98666.66;;;23.13;31.76
16100;BME280;8154;50.830;12.082;2022-12-29T00:57:05;98664.81;;;23.07;32.07
16100;BME280;8154;50.830;12.082;2022-12-29T00:59:32;98654.16;;;23.07;32.04
16100;BME280;8154;50.830;12.082;2022-12-29T01:02:00;98663.41;;;23.04;31.81
16100;BME280;8154;50.830;12.082;2022-12-29T01:04:26;98658.09;;;22.98;32.08
16100;BME280;8154;50.830;12.082;2022-12-29T01:06:53;98650.97;;;22.92;32.23
16100;BME280;8154;50.830;12.082;2022-12-29T01:09:20;98645.84;;;22.90;32.16
16100;BME280;8154;50.830;12.082;2022-12-29T01:12:11;98650.38;;;22.83;32.31
16100;BME280;8154;50.830;12.082;2022-12-29T01:14:42;98642.00;;;22.80;32.30
16100;BME280;8154;50.830;12.082;2022-12-29T01:17:11;98661.25;;;22.82;32.18
16100;BME280;8154;50.830;12.082;2022-12-29T01:19:37;98657.13;;;22.86;32.31
16100;BME280;8154;50.830;12.082;2022-12-29T01:22:06;98657.72;;;22.94;32.00
16100;BME280;8154;50.830;12.082;2022-12-29T01:24:36;98651.34;;;23.02;32.05
16100;BME280;8154;50.830;12.082;2022-12-29T01:27:02;98643.06;;;23.10;31.77
16100;BME280;8154;50.830;12.082;2022-12-29T01:29:33;98638.75;;;23.15;31.88
16100;BME280;8154;50.830;12.082;2022-12-29T01:32:03;98639.53;;;23.22;31.58
16100;BME280;8154;50.830;12.082;2022-12-29T01:34:31;98630.56;;;23.17;31.62
16100;BME280;8154;50.830;12.082;2022-12-29T01:37:02;98639.03;;;23.01;31.88
16100;BME280;8154;50.830;12.082;2022-12-29T01:39:29;98644.97;;;23.03;31.99
16100;BME280;8154;50.830;12.082;2022-12-29T01:41:55;98640.28;;;22.92;32.00
16100;BME280;8154;50.830;12.082;2022-12-29T01:44:51;98638.28;;;22.81;32.27
16100;BME280;8154;50.830;12.082;2022-12-29T01:50:00;98641.59;;;22.76;32.51
16100;BME280;8154;50.830;12.082;2022-12-29T01:52:30;98638.69;;;22.84;32.28
16100;BME280;8154;50.830;12.082;2022-12-29T01:55:00;98640.06;;;23.00;32.12
16100;BME280;8154;50.830;12.082;2022-12-29T01:57:34;98637.81;;;23.03;31.99
16100;BME280;8154;50.830;12.082;2022-12-29T02:00:11;98647.63;;;23.03;31.82
16100;BME280;8154;50.830;12.082;2022-12-29T02:02:51;98645.13;;;23.14;31.78
16100;BME280;8154;50.830;12.082;2022-12-29T02:08:11;98646.34;;;23.12;31.67
16100;BME280;8154;50.830;12.082;2022-12-29T02:10:48;98644.72;;;23.11;31.76
16100;BME280;8154;50.830;12.082;2022-12-29T02:13:26;98642.28;;;23.09;31.86
16100;BME280;8154;50.830;12.082;2022-12-29T02:21:53;98655.72;;;22.83;32.07
16100;BME280;8154;50.830;12.082;2022-12-29T02:33:12;98634.53;;;23.01;32.05
16100;BME280;8154;50.830;12.082;2022-12-29T02:41:40;98628.00;;;22.97;32.07
16100;BME280;8154;50.830;12.082;2022-12-29T02:44:52;98629.22;;;22.95;31.98
16100;BME280;8154;50.830;12.082;2022-12-29T02:48:13;98625.34;;;22.91;32.25
16100;BME280;8154;50.830;12.082;2022-12-29T02:51:04;98617.16;;;22.86;32.25
16100;BME280;8154;50.830;12.082;2022-12-29T02:53:53;98617.59;;;22.83;32.24
16100;BME280;8154;50.830;12.082;2022-12-29T02:56:51;98607.34;;;22.80;32.46
16100;BME280;8154;50.830;12.082;2022-12-29T02:59:17;98605.31;;;22.82;32.22
16100;BME280;8154;50.830;12.082;2022-12-29T03:07:32;98613.81;;;23.03;31.93
16100;BME280;8154;50.830;12.082;2022-12-29T03:12:56;98601.47;;;23.09;31.72
16100;BME280;8154;50.830;12.082;2022-12-29T03:15:49;98607.41;;;23.11;31.95
16100;BME280;8154;50.830;12.082;2022-12-29T03:18:39;98599.69;;;22.96;31.97
16100;BME280;8154;50.830;12.082;2022-12-29T03:21:12;98598.28;;;22.94;32.14
16100;BME280;8154;50.830;12.082;2022-12-29T03:23:41;98595.63;;;22.87;32.18
16100;BME280;8154;50.830;12.082;2022-12-29T03:26:11;98592.00;;;22.82;32.34
16100;BME280;8154;50.830;12.082;2022-12-29T03:28:50;98580.06;;;22.84;32.40
16100;BME280;8154;50.830;12.082;2022-12-29T03:31:19;98582.50;;;22.92;32.20
16100;BME280;8154;50.830;12.082;2022-12-29T03:33:48;98581.63;;;23.05;31.99
16100;BME280;8154;50.830;12.082;2022-12-29T05:35:41;98549.50;;;22.93;32.15
16100;BME280;8154;50.830;12.082;2022-12-29T05:38:07;98552.38;;;22.92;32.08
16100;BME280;8154;50.830;12.082;2022-12-29T05:40:33;98551.53;;;22.91;32.35
16100;BME280;8154;50.830;12.082;2022-12-29T05:42:59;98547.84;;;22.99;32.11
16100;BME280;8154;50.830;12.082;2022-12-29T05:45:25;98541.91;;;22.97;31.99
16100;BME280;8154;50.830;12.082;2022-12-29T05:47:51;98540.50;;;22.88;32.05
16100;BME280;8154;50.830;12.082;2022-12-29T05:50:17;98543.59;;;22.85;32.26
16100;BME280;8154;50.830;12.082;2022-12-29T05:52:43;98539.44;;;22.95;32.07
16100;BME280;8154;50.830;12.082;2022-12-29T05:55:10;98542.28;;;23.00;32.17
16100;BME280;8154;50.830;12.082;2022-12-29T05:57:36;98545.94;;;23.06;31.91
16100;BME280;8154;50.830;12.082;2022-12-29T06:00:04;98540.13;;;23.15;31.83
16100;BME280;8154;50.830;12.082;2022-12-29T06:02:31;98534.84;;;23.09;31.84
16100;BME280;8154;50.830;12.082;2022-12-29T06:04:57;98535.25;;;23.12;31.79
16100;BME280;8154;50.830;12.082;2022-12-29T06:07:23;98522.34;;;23.09;31.88
16100;BME280;8154;50.830;12.082;2022-12-29T06:09:49;98513.34;;;23.04;31.92
16100;BME280;8154;50.830;12.082;2022-12-29T06:12:15;98513.78;;;23.01;32.08
16100;BME280;8154;50.830;12.082;2022-12-29T06:14:42;98520.19;;;22.93;32.28
16100;BME280;8154;50.830;12.082;2022-12-29T06:17:08;98521.78;;;23.01;32.20
16100;BME280;8154;50.830;12.082;2022-12-29T06:19:35;98518.09;;;23.02;32.19
16100;BME280;8154;50.830;12.082;2022-12-29T06:22:01;98521.00;;;22.94;32.25
16100;BME280;8154;50.830;12.082;2022-12-29T06:24:28;98513.22;;;22.92;32.15
16100;BME280;8154;50.830;12.082;2022-12-29T06:26:54;98513.78;;;23.01;31.86
16100;BME280;8154;50.830;12.082;2022-12-29T06:29:20;98505.13;;;23.05;31.91
16100;BME280;8154;50.830;12.082;2022-12-29T06:31:46;98506.13;;;23.11;31.97
16100;BME280;8154;50.830;12.082;2022-12-29T06:34:12;98506.78;;;23.06;31.91
16100;BME280;8154;50.830;12.082;2022-12-29T11:38:03;98526.81;;;23.15;32.38
16100;BME280;8154;50.830;12.082;2022-12-29T11:40:31;98537.06;;;23.12;32.25
16100;BME280;8154;50.830;12.082;2022-12-29T11:43:04;98518.03;;;23.08;32.36
16100;BME280;8154;50.830;12.082;2022-12-29T11:45:33;98518.59;;;23.17;31.87
16100;BME280;8154;50.830;12.082;2022-12-29T11:48:20;98510.16;;;23.20;32.25
16100;BME280;8154;50.830;12.082;2022-12-29T11:50:52;98518.38;;;23.25;32.17
16100;BME280;8154;50.830;12.082;2022-12-29T11:55:56;98515.88;;;23.30;31.81
16100;BME280;8154;50.830;12.082;2022-12-29T11:58:31;98520.19;;;23.24;31.87
16100;BME280;8154;50.830;12.082;2022-12-29T12:01:13;98523.50;;;23.20;31.98
16100;BME280;8154;50.830;12.082;2022-12-29T12:03:45;98524.53;;;23.19;32.27
16100;BME280;8154;50.830;12.082;2022-12-29T12:06:16;98512.84;;;23.20;32.13
16100;BME280;8154;50.830;12.082;2022-12-29T12:08:53;98517.56;;;23.18;31.91
16100;BME280;8154;50.830;12.082;2022-12-29T12:11:25;98508.38;;;23.14;32.10
16100;BME280;8154;50.830;12.082;2022-12-29T12:14:17;98498.75;;;23.13;32.20
16100;BME280;8154;50.830;12.082;2022-12-29T12:16:51;98506.97;;;23.11;32.11
16100;BME280;8154;50.830;12.082;2022-12-29T12:19:38;98505.09;;;23.12;32.27
16100;BME280;8154;50.830;12.082;2022-12-29T12:22:13;98507.34;;;23.15;32.21
16100;BME280;8154;50.830;12.082;2022-12-29T12:30:05;98498.66;;;23.26;31.98
16100;BME280;8154;50.830;12.082;2022-12-29T12:33:04;98497.41;;;23.28;32.11
16100;BME280;8154;50.830;12.082;2022-12-29T13:26:25;98518.75;;;23.28;31.96
16100;BME280;8154;50.830;12.082;2022-12-29T13:34:51;98560.63;;;23.15;32.37
16100;BME280;8154;50.830;12.082;2022-12-29T13:37:23;98554.13;;;23.11;32.26
16100;BME280;8154;50.830;12.082;2022-12-29T13:39:55;98541.81;;;23.10;32.30
16100;BME280;8154;50.830;12.082;2022-12-29T13:42:24;98547.75;;;23.12;32.39
16100;BME280;8154;50.830;12.082;2022-12-29T13:45:04;98534.59;;;23.17;32.37
16100;BME280;8154;50.830;12.082;2022-12-29T13:48:06;98526.53;;;23.30;31.94
16100;BME280;8154;50.830;12.082;2022-12-29T13:50:36;98525.50;;;23.31;32.01
16100;BME280;8154;50.830;12.082;2022-12-29T13:53:26;98525.94;;;23.28;32.21
16100;BME280;8154;50.830;12.082;2022-12-29T13:55:58;98520.00;;;23.26;32.05
16100;BME280;8154;50.830;12.082;2022-12-29T14:01:32;98528.41;;;23.23;32.08
16100;BME280;8154;50.830;12.082;2022-12-29T14:04:02;98539.28;;;23.21;32.14
16100;BME280;8154;50.830;12.082;2022-12-29T14:06:32;98540.31;;;23.20;32.37
16100;BME280;8154;50.830;12.082;2022-12-29T14:12:47;98562.88;;;23.18;32.24
16100;BME280;8154;50.830;12.082;2022-12-29T14:15:21;98571.91;;;23.17;32.36
16100;BME280;8154;50.830;12.082;2022-12-29T15:19:25;98644.25;;;23.27;32.33
16100;BME280;8154;50.830;12.082;2022-12-29T15:21:52;98645.47;;;23.24;32.13
16100;BME280;8154;50.830;12.082;2022-12-29T15:24:19;98654.97;;;23.14;32.36
16100;BME280;8154;50.830;12.082;2022-12-29T15:26:48;98661.34;;;23.13;32.35
16100;BME280;8154;50.830;12.082;2022-12-29T15:32:00;98672.13;;;23.24;32.55
16100;BME280;8154;50.830;12.082;2022-12-29T15:34:30;98682.19;;;23.29;32.70
16100;BME280;8154;50.830;12.082;2022-12-29T15:36:56;98692.63;;;23.24;32.82
16100;BME280;8154;50.830;12.082;2022-12-29T15:39:29;98697.81;;;23.19;33.33
16100;BME280;8154;50.830;12.082;2022-12-29T15:45:16;98696.88;;;23.44;33.12
16100;BME280;8154;50.830;12.082;2022-12-29T15:47:45;98690.50;;;23.45;32.94
16100;BME280;8154;50.830;12.082;2022-12-29T15:50:26;98694.84;;;23.40;33.11
16100;BME280;8154;50.830;12.082;2022-12-29T15:52:55;98693.44;;;23.37;33.15
16100;BME280;8154;50.830;12.082;2022-12-29T15:55:44;98691.22;;;23.34;33.03
16100;BME280;8154;50.830;12.082;2022-12-29T15:58:24;98693.06;;;23.27;33.29
16100;BME280;8154;50.830;12.082;2022-12-29T16:00:59;98692.63;;;23.24;33.37
16100;BME280;8154;50.830;12.082;2022-12-29T16:03:33;98693.28;;;23.26;33.60
16100;BME280;8154;50.830;12.082;2022-12-29T16:06:21;98690.41;;;23.27;33.70
16100;BME280;8154;50.830;12.082;2022-12-29T16:11:40;98692.06;;;23.22;33.86
16100;BME280;8154;50.830;12.082;2022-12-29T16:14:16;98702.09;;;23.20;34.05
16100;BME280;8154;50.830;12.082;2022-12-29T16:16:45;98701.47;;;23.18;34.10
16100;BME280;8154;50.830;12.082;2022-12-29T16:19:36;98705.81;;;23.19;33.90
16100;BME280;8154;50.830;12.082;2022-12-29T16:22:15;98697.59;;;23.20;34.13
16100;BME280;8154;50.830;12.082;2022-12-29T16:24:45;98696.56;;;23.15;34.16
16100;BME280;8154;50.830;12.082;2022-12-29T16:30:06;98670.16;;;23.07;34.36
16100;BME280;8154;50.830;12.082;2022-12-29T16:32:34;98676.72;;;23.11;34.48
16100;BME280;8154;50.830;12.082;2022-12-29T16:35:13;98682.06;;;23.04;34.50
16100;BME280;8154;50.830;12.082;2022-12-29T16:37:44;98693.97;;;23.02;34.67
16100;BME280;8154;50.830;12.082;2022-12-29T16:40:29;98708.09;;;23.09;34.67
16100;BME280;8154;50.830;12.082;2022-12-29T16:43:00;98696.81;;;23.07;34.42
16100;BME280;8154;50.830;12.082;2022-12-29T16:51:12;98702.13;;;23.07;34.39
16100;BME280;8154;50.830;12.082;2022-12-29T16:53:51;98693.53;;;23.11;34.00
16100;BME280;8154;50.830;12.082;2022-12-29T16:56:49;98703.38;;;23.11;34.24
16100;BME280;8154;50.830;12.082;2022-12-29T16:59:37;98689.03;;;23.05;34.10
16100;BME280;8154;50.830;12.082;2022-12-29T17:02:24;98688.97;;;23.18;33.71
16100;BME280;8154;50.830;12.082;2022-12-29T17:04:52;98695.56;;;23.16;33.91
16100;BME280;8154;50.830;12.082;2022-12-29T17:07:27;98687.81;;;23.08;34.03
16100;BME280;8154;50.830;12.082;2022-12-29T17:09:54;98692.31;;;23.07;34.08
16100;BME280;8154;50.830;12.082;2022-12-29T17:12:26;98696.44;;;23.03;33.87
16100;BME280;8154;50.830;12.082;2022-12-29T17:15:36;98701.78;;;22.97;33.99
16100;BME280;8154;50.830;12.082;2022-12-29T17:18:00;98689.88;;;22.93;34.08
16100;BME280;8154;50.830;12.082;2022-12-29T18:09:33;98698.78;;;22.73;34.02
16100;BME280;8154;50.830;12.082;2022-12-29T18:11:59;98698.75;;;22.80;33.70
16100;BME280;8154;50.830;12.082;2022-12-29T18:14:26;98705.09;;;22.86;33.69
16100;BME280;8154;50.830;12.082;2022-12-29T18:16:53;98704.47;;;22.84;33.61
16100;BME280;8154;50.830;12.082;2022-12-29T18:19:21;98714.31;;;22.83;33.65
16100;BME280;8154;50.830;12.082;2022-12-29T18:21:47;98713.31;;;22.77;33.59
16100;BME280;8154;50.830;12.082;2022-12-29T18:24:14;98710.03;;;22.76;33.72
16100;BME280;8154;50.830;12.082;2022-12-29T18:26:43;98707.56;;;22.74;34.05
16100;BME280;8154;50.830;12.082;2022-12-29T18:29:10;98704.50;;;22.77;33.57
16100;BME280;8154;50.830;12.082;2022-12-29T18:32:09;98711.25;;;22.80;33.64
16100;BME280;8154;50.830;12.082;2022-12-29T18:34:51;98720.28;;;22.72;33.74
16100;BME280;8154;50.830;12.082;2022-12-29T18:37:17;98735.84;;;22.82;33.70
16100;BME280;8154;50.830;12.082;2022-12-29T18:39:44;98724.97;;;22.83;33.71
16100;BME280;8154;50.830;12.082;2022-12-29T18:42:15;98733.56;;;22.85;33.55
16100;BME280;8154;50.830;12.082;2022-12-29T18:44:43;98732.34;;;22.88;33.67
16100;BME280;8154;50.830;12.082;2022-12-29T18:47:09;98743.00;;;22.88;33.56
16100;BME280;8154;50.830;12.082;2022-12-29T18:49:36;98745.66;;;22.88;33.50
16100;BME280;8154;50.830;12.082;2022-12-29T18:52:04;98746.25;;;22.90;33.48
16100;BME280;8154;50.830;12.082;2022-12-29T18:54:32;98736.22;;;22.85;33.63
16100;BME280;8154;50.830;12.082;2022-12-29T18:56:59;98737.06;;;22.86;33.49
16100;BME280;8154;50.830;12.082;2022-12-29T18:59:25;98741.97;;;22.89;33.56
16100;BME280;8154;50.830;12.082;2022-12-29T19:01:54;98741.13;;;22.88;33.37
16100;BME280;8154;50.830;12.082;2022-12-29T19:04:22;98742.59;;;22.91;33.39
16100;BME280;8154;50.830;12.082;2022-12-29T19:06:50;98734.59;;;22.91;33.53
16100;BME280;8154;50.830;12.082;2022-12-29T20:08:05;98748.91;;;22.96;33.14
16100;BME280;8154;50.830;12.082;2022-12-29T20:10:32;98751.38;;;22.91;33.38
16100;BME280;8154;50.830;12.082;2022-12-29T20:12:58;98753.25;;;22.91;33.37
16100;BME280;8154;50.830;12.082;2022-12-29T20:15:26;98748.91;;;22.96;33.22
16100;BME280;8154;50.830;12.082;2022-12-29T20:17:53;98769.59;;;23.01;33.04
16100;BME280;8154;50.830;12.082;2022-12-29T20:20:32;98765.88;;;23.08;33.11
16100;BME280;8154;50.830;12.082;2022-12-29T20:22:59;98776.13;;;23.18;33.01
16100;BME280;8154;50.830;12.082;2022-12-29T20:25:28;98781.06;;;23.14;33.07
16100;BME280;8154;50.830;12.082;2022-12-29T20:27:54;98789.28;;;23.13;32.99
16100;BME280;8154;50.830;12.082;2022-12-29T20:30:21;98790.50;;;23.17;32.73
16100;BME280;8154;50.830;12.082;2022-12-29T20:32:50;98791.53;;;23.16;32.92
16100;BME280;8154;50.830;12.082;2022-12-29T20:35:16;98795.00;;;23.16;32.71
16100;BME280;8154;50.830;12.082;2022-12-29T20:37:46;98801.78;;;23.12;32.87
16100;BME280;8154;50.830;12.082;2022-12-29T20:40:12;98807.13;;;23.06;33.27
16100;BME280;8154;50.830;12.082;2022-12-29T20:42:40;98794.44;;;22.95;33.07
16100;BME280;8154;50.830;12.082;2022-12-29T20:45:07;98788.47;;;22.93;33.29
16100;BME280;8154;50.830;12.082;2022-12-29T20:47:35;98794.84;;;22.98;33.19
16100;BME280;8154;50.830;12.082;2022-12-29T20:50:02;98784.59;;;23.02;32.88
16100;BME280;8154;50.830;12.082;2022-12-29T20:52:29;98790.09;;;23.07;32.96
16100;BME280;8154;50.830;12.082;2022-12-29T20:54:56;98797.28;;;23.13;33.02
16100;BME280;8154;50.830;12.082;2022-12-29T20:57:23;98790.91;;;23.14;33.01
16100;BME280;8154;50.830;12.082;2022-12-29T20:59:50;98792.31;;;23.16;32.80
16100;BME280;8154;50.830;12.082;2022-12-29T21:02:19;98795.41;;;23.13;32.88
16100;BME280;8154;50.830;12.082;2022-12-29T21:04:47;98786.78;;;23.18;32.88
16100;BME280;8154;50.830;12.082;2022-12-29T21:07:15;98781.66;;;23.23;32.67
16100;BME280;8154;50.830;12.082;2022-12-29T22:10:44;98832.09;;;23.24;32.58
16100;BME280;8154;50.830;12.082;2022-12-29T22:13:33;98834.78;;;23.18;32.74
16100;BME280;8154;50.830;12.082;2022-12-29T22:16:05;98830.69;;;23.15;32.61
16100;BME280;8154;50.830;12.082;2022-12-29T22:18:32;98832.94;;;23.18;32.71
16100;BME280;8154;50.830;12.082;2022-12-29T22:21:09;98840.31;;;23.16;32.71
16100;BME280;8154;50.830;12.082;2022-12-29T22:23:36;98857.13;;;23.17;32.94
16100;BME280;8154;50.830;12.082;2022-12-29T22:26:05;98862.06;;;23.07;33.02
16100;BME280;8154;50.830;12.082;2022-12-29T22:28:34;98865.53;;;23.14;32.72
16100;BME280;8154;50.830;12.082;2022-12-29T22:31:04;98879.50;;;23.16;32.85
16100;BME280;8154;50.830;12.082;2022-12-29T22:33:31;98885.41;;;23.24;32.73
16100;BME280;8154;50.830;12.082;2022-12-29T22:35:58;98870.06;;;23.33;32.43
16100;BME280;8154;50.830;12.082;2022-12-29T22:38:24;98875.19;;;23.34;32.69
16100;BME280;8154;50.830;12.082;2022-12-29T22:40:50;98879.06;;;23.32;32.53
16100;BME280;8154;50.830;12.082;2022-12-29T22:43:17;98884.00;;;23.28;32.65
16100;BME280;8154;50.830;12.082;2022-12-29T22:45:45;98898.16;;;23.29;32.58
16100;BME280;8154;50.830;12.082;2022-12-29T22:48:11;98898.97;;;23.29;32.59
16100;BME280;8154;50.830;12.082;2022-12-29T22:50:38;98888.72;;;23.26;32.79
16100;BME280;8154;50.830;12.082;2022-12-29T22:53:05;98893.25;;;23.26;32.76
16100;BME280;8154;50.830;12.082;2022-12-29T22:55:31;98898.34;;;23.34;32.43
16100;BME280;8154;50.830;12.082;2022-12-29T22:57:58;98900.41;;;23.25;32.86
16100;BME280;8154;50.830;12.082;2022-12-29T23:00:27;98905.31;;;23.22;32.73
16100;BME280;8154;50.830;12.082;2022-12-29T23:02:53;98903.91;;;23.13;33.13
16100;BME280;8154;50.830;12.082;2022-12-29T23:05:20;98905.53;;;23.14;32.65
16100;BME280;8154;50.830;12.082;2022-12-29T23:07:46;98906.16;;;23.09;32.98
16100;BME280;8154;50.830;12.082;2022-12-29T23:10:13;98907.16;;;23.15;32.97
16100;BME280;8154;50.830;12.082;2022-12-29T23:12:39;98909.00;;;23.21;32.72
16100;BME280;8154;50.830;12.082;2022-12-29T23:15:06;98905.53;;;23.27;32.74
16100;BME280;8154;50.830;12.082;2022-12-29T23:17:33;98910.06;;;23.33;32.51
16100;BME280;8154;50.830;12.082;2022-12-29T23:19:59;98913.72;;;23.32;32.71
16100;BME280;8154;50.830;12.082;2022-12-29T23:22:25;98916.81;;;23.35;32.71
16100;BME280;8154;50.830;12.082;2022-12-29T23:24:51;98921.53;;;23.33;32.66
16100;BME280;8154;50.830;12.082;2022-12-29T23:27:17;98927.69;;;23.34;32.74
16100;BME280;8154;50.830;12.082;2022-12-29T23:29:44;98932.19;;;23.33;32.53
16100;BME280;8154;50.830;12.082;2022-12-29T23:32:10;98926.66;;;23.22;32.71
16100;BME280;8154;50.830;12.082;2022-12-29T23:34:37;98916.59;;;23.17;33.02
16100;BME280;8154;50.830;12.082;2022-12-29T23:37:03;98921.53;;;23.14;32.85
16100;BME280;8154;50.830;12.082;2022-12-29T23:39:29;98928.69;;;23.07;33.03
16100;BME280;8154;50.830;12.082;2022-12-29T23:41:56;98923.97;;;23.09;33.07
16100;BME280;8154;50.830;12.082;2022-12-29T23:44:23;98932.59;;;23.11;32.96
16100;BME280;8154;50.830;12.082;2022-12-29T23:46:49;98929.94;;;23.17;32.96
16100;BME280;8154;50.830;12.082;2022-12-29T23:49:15;98928.06;;;23.24;32.81
16100;BME280;8154;50.830;12.082;2022-12-29T23:51:42;98928.91;;;23.18;32.77
16100;BME280;8154;50.830;12.082;2022-12-29T23:54:08;98926.84;;;23.27;32.77
16100;BME280;8154;50.830;12.082;2022-12-29T23:56:35;98930.78;;;23.31;32.58
16100;BME280;8154;50.830;12.082;2022-12-29T23:59:04;98930.78;;;23.37;32.58
